createdAt,value
2019-02-14T00:02:21.342Z,101717.73
2019-02-14T00:04:47.646Z,101723.64
2019-02-14T00:07:14.221Z,101717.28
2019-02-14T00:09:40.839Z,101711.69
2019-02-14T00:12:07.429Z,101706.06
2019-02-14T00:14:33.824Z,101700.30
2019-02-14T00:17:00.414Z,101703.60
2019-02-14T00:19:26.754Z,101709.60
2019-02-14T00:21:53.297Z,101708.52
2019-02-14T00:24:19.632Z,101703.47
2019-02-14T00:26:46.202Z,101708.97
2019-02-14T00:29:12.823Z,101707.12
2019-02-14T00:31:40.222Z,101713.88
2019-02-14T00:34:06.833Z,101712.20
2019-02-14T00:36:33.133Z,101706.94
2019-02-14T00:38:59.453Z,101709.59
2019-02-14T00:41:26.002Z,101714.77
2019-02-14T00:43:52.624Z,101725.69
2019-02-14T00:46:18.925Z,101723.19
2019-02-14T00:48:45.256Z,101711.30
2019-02-14T00:51:11.585Z,101717.12
2019-02-14T00:53:37.957Z,101729.65
2019-02-14T00:56:04.328Z,101726.98
2019-02-14T00:58:30.920Z,101724.78
2019-02-14T01:00:57.289Z,101734.45
2019-02-14T01:03:23.582Z,101734.02
2019-02-14T01:05:50.234Z,101730.86
2019-02-14T01:08:16.521Z,101722.89
2019-02-14T01:10:43.118Z,101726.36
2019-02-14T01:13:09.697Z,101732.57
2019-02-14T01:15:36.411Z,101723.34
2019-02-14T01:18:03.037Z,101724.64
2019-02-14T01:20:29.467Z,101727.16
2019-02-14T01:22:56.055Z,101726.58
2019-02-14T01:25:22.443Z,101728.83
2019-02-14T01:27:48.765Z,101737.06
2019-02-14T01:30:15.098Z,101733.91
2019-02-14T01:32:41.380Z,101735.77
2019-02-14T01:35:08.359Z,101732.08
2019-02-14T01:37:34.937Z,101735.95
2019-02-14T01:40:01.260Z,101732.97
2019-02-14T01:42:29.509Z,101728.11
2019-02-14T01:44:55.831Z,101730.41
2019-02-14T01:47:22.378Z,101732.11
2019-02-14T01:49:48.730Z,101732.75
2019-02-14T01:52:15.127Z,101726.16
2019-02-14T01:54:41.725Z,101727.01
2019-02-14T01:57:08.058Z,101732.04
2019-02-14T01:59:34.397Z,101730.45
2019-02-14T02:02:01.606Z,101725.94
2019-02-14T02:04:27.926Z,101723.43
2019-02-14T02:06:54.531Z,101719.91
2019-02-14T02:09:21.299Z,101727.63
2019-02-14T02:11:47.861Z,101724.81
2019-02-14T02:14:14.444Z,101723.83
2019-02-14T02:16:41.008Z,101731.36
2019-02-14T02:19:07.366Z,101727.98
2019-02-14T02:21:34.144Z,101739.69
2019-02-14T02:24:00.791Z,101736.64
2019-02-14T02:26:27.123Z,101737.63
2019-02-14T02:28:54.453Z,101741.77
2019-02-14T02:31:20.867Z,101740.98
2019-02-14T02:33:47.180Z,101737.81
2019-02-14T02:36:13.494Z,101738.14
2019-02-14T02:38:39.834Z,101736.55
2019-02-14T02:41:06.138Z,101731.27
2019-02-14T02:43:32.466Z,101730.73
2019-02-14T02:45:58.771Z,101739.29
2019-02-14T02:48:25.119Z,101748.31
2019-02-14T02:50:51.419Z,101746.84
2019-02-14T02:53:17.775Z,101750.14
2019-02-14T02:55:44.111Z,101758.51
2019-02-14T02:58:10.671Z,101757.77
2019-02-14T03:00:37.014Z,101759.77
2019-02-14T03:03:03.307Z,101762.37
2019-02-14T03:05:29.648Z,101752.39
2019-02-14T03:07:55.998Z,101755.28
2019-02-14T03:10:22.284Z,101764.91
2019-02-14T03:12:48.824Z,101764.13
2019-02-14T03:15:15.495Z,101757.04
2019-02-14T03:17:41.832Z,101765.44
2019-02-14T03:20:12.157Z,101764.22
2019-02-14T03:22:38.691Z,101771.30
2019-02-14T03:25:16.570Z,101767.23
2019-02-14T03:27:43.183Z,101770.20
2019-02-14T03:30:14.236Z,101766.85
2019-02-14T03:32:40.560Z,101766.95
2019-02-14T03:35:07.587Z,101768.08
2019-02-14T03:37:36.157Z,101767.86
2019-02-14T03:40:06.390Z,101771.21
2019-02-14T03:42:33.026Z,101769.88
2019-02-14T03:44:59.620Z,101778.84
2019-02-14T03:47:26.317Z,101776.23
2019-02-14T03:49:52.643Z,101779.69
2019-02-14T03:52:19.255Z,101776.03
2019-02-14T03:54:45.867Z,101774.42
2019-02-14T03:57:12.192Z,101763.70
2019-02-14T03:59:38.758Z,101767.50
2019-02-14T04:02:05.350Z,101762.44
2019-02-14T04:04:31.712Z,101763.08
2019-02-14T04:06:58.036Z,101761.36
2019-02-14T04:09:24.340Z,101761.77
2019-02-14T04:11:50.755Z,101757.19
2019-02-14T04:14:17.319Z,101761.38
2019-02-14T04:16:43.735Z,101764.91
2019-02-14T04:19:10.303Z,101760.04
2019-02-14T04:21:37.643Z,101761.98
2019-02-14T04:24:04.198Z,101769.13
2019-02-14T04:26:30.554Z,101756.09
2019-02-14T04:28:56.870Z,101754.55
2019-02-14T04:31:23.545Z,101751.64
2019-02-14T04:33:50.883Z,101746.09
2019-02-14T04:36:17.466Z,101746.74
2019-02-14T04:38:43.798Z,101744.62
2019-02-14T04:41:10.106Z,101738.80
2019-02-14T04:43:36.696Z,101749.41
2019-02-14T04:46:03.238Z,101746.06
2019-02-14T04:48:33.235Z,101744.00
2019-02-14T04:50:59.830Z,101751.23
2019-02-14T04:53:26.148Z,101750.88
2019-02-14T04:55:54.480Z,101751.12
2019-02-14T04:58:21.245Z,101746.31
2019-02-14T05:00:47.607Z,101747.67
2019-02-14T05:03:14.152Z,101751.51
2019-02-14T05:05:40.717Z,101753.22
2019-02-14T05:08:07.056Z,101747.64
2019-02-14T05:10:33.660Z,101739.06
2019-02-14T05:12:59.987Z,101741.17
2019-02-14T05:15:26.314Z,101737.41
2019-02-14T05:17:52.657Z,101736.20
2019-02-14T05:20:18.970Z,101742.75
2019-02-14T05:22:45.582Z,101744.16
2019-02-14T05:25:11.879Z,101749.70
2019-02-14T05:27:38.575Z,101753.33
2019-02-14T05:30:16.519Z,101750.69
2019-02-14T05:32:42.938Z,101755.31
2019-02-14T05:35:09.533Z,101757.84
2019-02-14T05:37:35.911Z,101756.46
2019-02-14T05:40:04.737Z,101759.51
2019-02-14T05:42:31.081Z,101758.11
2019-02-14T05:44:57.420Z,101752.19
2019-02-14T05:47:23.749Z,101759.86
2019-02-14T05:49:50.401Z,101756.50
2019-02-14T05:52:17.344Z,101761.75
2019-02-14T05:54:43.630Z,101768.67
2019-02-14T05:57:09.971Z,101767.17
2019-02-14T05:59:36.319Z,101759.77
2019-02-14T06:02:02.936Z,101769.80
2019-02-14T06:04:29.572Z,101774.57
2019-02-14T06:07:01.077Z,101766.34
2019-02-14T06:09:24.217Z,101770.94
2019-02-14T06:11:50.516Z,101774.88
2019-02-14T06:14:17.545Z,101768.20
2019-02-14T06:16:43.909Z,101776.29
2019-02-14T06:19:10.597Z,101769.16
2019-02-14T06:21:36.942Z,101780.74
2019-02-14T06:24:03.551Z,101790.96
2019-02-14T06:26:30.020Z,101786.39
2019-02-14T06:28:56.660Z,101788.59
2019-02-14T06:31:23.003Z,101787.92
2019-02-14T06:33:51.779Z,101788.28
2019-02-14T06:36:18.680Z,101798.26
2019-02-14T06:38:45.265Z,101787.59
2019-02-14T06:41:11.874Z,101795.86
2019-02-14T06:43:38.253Z,101820.06
2019-02-14T06:46:04.836Z,101828.77
2019-02-14T06:48:31.131Z,101836.45
2019-02-14T06:50:57.523Z,101847.11
2019-02-14T06:53:24.140Z,101853.15
2019-02-14T06:55:50.434Z,101840.59
2019-02-14T06:58:17.050Z,101846.74
2019-02-14T07:00:43.443Z,101842.89
2019-02-14T07:03:10.111Z,101854.17
2019-02-14T07:05:36.548Z,101851.61
2019-02-14T07:08:02.893Z,101863.90
2019-02-14T07:10:29.524Z,101860.36
2019-02-14T07:12:56.931Z,101855.38
2019-02-14T07:15:23.316Z,101851.55
2019-02-14T07:17:49.911Z,101844.80
2019-02-14T07:20:16.483Z,101830.15
2019-02-14T07:22:51.227Z,101843.34
2019-02-14T07:25:19.949Z,101847.50
2019-02-14T07:27:46.522Z,101828.91
2019-02-14T07:30:22.110Z,101833.83
2019-02-14T07:32:48.585Z,101839.61
2019-02-14T07:35:14.899Z,101843.48
2019-02-14T07:37:41.301Z,101853.40
2019-02-14T07:40:13.468Z,101850.41
2019-02-14T07:42:40.061Z,101857.84
2019-02-14T07:45:12.739Z,101866.09
2019-02-14T07:47:39.119Z,101875.72
2019-02-14T07:50:09.181Z,101882.09
2019-02-14T07:52:35.912Z,101880.42
2019-02-14T07:55:03.394Z,101881.47
2019-02-14T07:57:29.930Z,101890.98
2019-02-14T07:59:56.586Z,101895.67
2019-02-14T08:02:23.438Z,101886.80
2019-02-14T08:04:49.884Z,101880.25
2019-02-14T08:07:16.504Z,101869.77
2019-02-14T08:09:42.840Z,101871.13
2019-02-14T08:12:09.882Z,101874.19
2019-02-14T08:14:36.535Z,101872.73
2019-02-14T08:17:03.139Z,101884.87
2019-02-14T08:19:29.801Z,101892.23
2019-02-14T08:21:56.164Z,101896.89
2019-02-14T08:24:22.498Z,101890.30
2019-02-14T08:26:49.035Z,101893.59
2019-02-14T08:29:15.427Z,101897.83
2019-02-14T08:31:41.813Z,101902.15
2019-02-14T08:34:08.482Z,101904.11
2019-02-14T08:36:34.985Z,101901.91
2019-02-14T08:39:01.290Z,101894.81
2019-02-14T08:41:29.550Z,101901.63
2019-02-14T08:43:55.909Z,101889.58
2019-02-14T08:46:22.276Z,101896.62
2019-02-14T08:48:49.118Z,101906.53
2019-02-14T08:51:15.437Z,101912.55
2019-02-14T08:53:41.881Z,101911.94
2019-02-14T08:56:08.203Z,101904.06
2019-02-14T08:58:34.522Z,101917.73
2019-02-14T09:01:01.221Z,101928.37
2019-02-14T09:03:27.530Z,101921.55
2019-02-14T09:05:53.862Z,101933.25
2019-02-14T09:08:20.459Z,101934.23
2019-02-14T09:10:47.579Z,101923.87
2019-02-14T09:13:17.319Z,101906.45
2019-02-14T09:15:42.466Z,101906.18
2019-02-14T09:18:08.799Z,101911.95
2019-02-14T09:20:35.419Z,101901.35
2019-02-14T09:23:01.849Z,101908.34
2019-02-14T09:25:28.181Z,101899.16
2019-02-14T09:27:54.503Z,101894.68
2019-02-14T09:30:20.824Z,101900.99
2019-02-14T09:32:47.154Z,101901.89
2019-02-14T09:35:13.510Z,101902.44
2019-02-14T09:37:39.846Z,101895.54
2019-02-14T09:40:12.197Z,101887.61
2019-02-14T09:42:39.423Z,101886.63
2019-02-14T09:45:11.224Z,101886.53
2019-02-14T09:47:37.831Z,101879.27
2019-02-14T09:50:07.967Z,101881.77
2019-02-14T09:52:34.596Z,101880.07
2019-02-14T09:55:00.948Z,101891.96
2019-02-14T09:57:27.351Z,101884.96
2019-02-14T09:59:54.718Z,101872.55
2019-02-14T10:02:21.847Z,101867.62
2019-02-14T10:04:48.175Z,101844.98
2019-02-14T10:07:14.555Z,101854.49
2019-02-14T10:09:41.042Z,101859.52
2019-02-14T10:12:07.444Z,101863.00
2019-02-14T10:14:34.045Z,101859.58
2019-02-14T10:17:00.642Z,101862.94
2019-02-14T10:19:28.644Z,101862.57
2019-02-14T10:21:55.225Z,101861.23
2019-02-14T10:24:21.918Z,101842.38
2019-02-14T10:26:48.324Z,101858.17
2019-02-14T10:29:14.792Z,101856.13
2019-02-14T10:31:41.191Z,101847.22
2019-02-14T10:34:07.867Z,101847.34
2019-02-14T10:36:34.438Z,101843.92
2019-02-14T10:39:00.886Z,101842.16
2019-02-14T10:41:29.216Z,101835.84
2019-02-14T10:43:55.713Z,101829.16
2019-02-14T10:46:22.042Z,101836.64
2019-02-14T10:48:48.626Z,101830.04
2019-02-14T10:51:15.044Z,101839.54
2019-02-14T10:53:41.748Z,101845.48
2019-02-14T10:56:08.311Z,101850.87
2019-02-14T10:58:34.660Z,101846.17
2019-02-14T11:01:01.194Z,101844.47
2019-02-14T11:03:27.639Z,101834.31
2019-02-14T11:05:54.980Z,101845.62
2019-02-14T11:08:21.641Z,101844.65
2019-02-14T11:10:47.959Z,101847.13
2019-02-14T11:13:14.542Z,101855.04
2019-02-14T11:15:40.999Z,101856.50
2019-02-14T11:18:07.777Z,101871.52
2019-02-14T11:20:34.105Z,101872.08
2019-02-14T11:23:00.714Z,101884.95
2019-02-14T11:25:36.199Z,101891.66
2019-02-14T11:28:02.649Z,101884.43
2019-02-14T11:30:29.378Z,101874.63
2019-02-14T11:32:55.692Z,101877.09
2019-02-14T11:35:22.016Z,101853.74
2019-02-14T11:37:48.374Z,101848.98
2019-02-14T11:40:15.295Z,101846.92
2019-02-14T11:42:41.616Z,101850.94
2019-02-14T11:45:15.789Z,101844.47
2019-02-14T11:47:43.078Z,101849.17
2019-02-14T11:50:11.595Z,101832.34
2019-02-14T11:52:38.020Z,101828.53
2019-02-14T11:55:06.712Z,101829.95
2019-02-14T11:57:33.263Z,101839.95
2019-02-14T11:59:59.650Z,101831.42
2019-02-14T12:02:26.353Z,101819.50
2019-02-14T12:04:53.595Z,101818.19
2019-02-14T12:07:20.264Z,101822.02
2019-02-14T12:09:46.874Z,101811.61
2019-02-14T12:12:13.470Z,101802.91
2019-02-14T12:14:40.341Z,101803.96
2019-02-14T12:17:09.142Z,101794.41
2019-02-14T12:19:38.422Z,101786.63
2019-02-14T12:22:04.719Z,101795.30
2019-02-14T12:24:31.097Z,101788.52
2019-02-14T12:26:57.728Z,101789.78
2019-02-14T12:29:24.406Z,101795.33
2019-02-14T12:31:50.767Z,101799.45
2019-02-14T12:34:17.097Z,101793.33
2019-02-14T12:36:43.585Z,101791.52
2019-02-14T12:39:11.636Z,101781.77
2019-02-14T12:41:38.244Z,101781.77
2019-02-14T12:44:04.806Z,101780.20
2019-02-14T12:46:31.449Z,101789.28
2019-02-14T12:48:58.008Z,101780.52
2019-02-14T12:51:26.247Z,101767.39
2019-02-14T12:53:52.866Z,101778.48
2019-02-14T12:56:19.173Z,101774.32
2019-02-14T12:58:45.838Z,101771.23
2019-02-14T13:01:12.444Z,101759.07
2019-02-14T13:03:38.812Z,101765.46
2019-02-14T13:06:05.149Z,101774.70
2019-02-14T13:08:32.167Z,101767.75
2019-02-14T13:10:58.695Z,101764.21
2019-02-14T13:13:25.172Z,101759.20
2019-02-14T13:15:53.011Z,101760.39
2019-02-14T13:18:19.939Z,101765.77
2019-02-14T13:20:46.284Z,101761.41
2019-02-14T13:23:12.930Z,101759.77
2019-02-14T13:25:39.360Z,101760.34
2019-02-14T13:28:05.686Z,101765.16
2019-02-14T13:30:32.097Z,101769.14
2019-02-14T13:32:58.813Z,101766.32
2019-02-14T13:35:25.163Z,101766.20
2019-02-14T13:37:51.629Z,101767.26
2019-02-14T13:40:17.988Z,101760.34
2019-02-14T13:42:44.628Z,101760.58
2019-02-14T13:45:20.697Z,101762.33
2019-02-14T13:47:49.895Z,101766.58
2019-02-14T13:50:16.492Z,101757.61
2019-02-14T13:52:42.831Z,101755.77
2019-02-14T13:55:09.746Z,101758.45
2019-02-14T13:57:36.111Z,101762.45
2019-02-14T14:00:08.467Z,101752.09
2019-02-14T14:02:34.910Z,101748.82
2019-02-14T14:05:01.357Z,101755.58
2019-02-14T14:07:28.102Z,101744.33
2019-02-14T14:09:54.939Z,101759.04
2019-02-14T14:12:21.416Z,101744.70
2019-02-14T14:14:47.778Z,101744.42
2019-02-14T14:17:14.383Z,101750.58
2019-02-14T14:19:41.136Z,101743.17
2019-02-14T14:22:07.570Z,101747.78
2019-02-14T14:24:33.913Z,101760.20
2019-02-14T14:27:00.346Z,101755.89
2019-02-14T14:29:26.943Z,101755.41
2019-02-14T14:31:53.277Z,101743.97
2019-02-14T14:34:19.694Z,101745.41
2019-02-14T14:36:46.075Z,101754.72
2019-02-14T14:39:12.607Z,101745.09
2019-02-14T14:41:39.243Z,101745.22
2019-02-14T14:44:07.929Z,101732.48
2019-02-14T14:46:34.743Z,101737.92
2019-02-14T14:49:01.101Z,101739.39
2019-02-14T14:51:27.700Z,101736.91
2019-02-14T14:53:54.072Z,101739.59
2019-02-14T14:56:21.602Z,101729.19
2019-02-14T14:58:48.196Z,101736.28
2019-02-14T15:01:14.841Z,101738.14
2019-02-14T15:03:41.468Z,101747.58
2019-02-14T15:06:07.858Z,101743.44
2019-02-14T15:08:35.200Z,101733.33
2019-02-14T15:11:01.659Z,101736.32
2019-02-14T15:13:28.141Z,101730.33
2019-02-14T15:15:54.568Z,101728.36
2019-02-14T15:18:20.937Z,101725.90
2019-02-14T15:20:47.554Z,101718.05
2019-02-14T15:23:13.906Z,101717.64
2019-02-14T15:25:40.510Z,101719.25
2019-02-14T15:28:07.099Z,101713.77
2019-02-14T15:30:33.472Z,101717.53
2019-02-14T15:33:00.067Z,101714.55
2019-02-14T15:35:26.693Z,101703.09
2019-02-14T15:37:53.021Z,101701.86
2019-02-14T15:40:19.436Z,101692.06
2019-02-14T15:42:45.765Z,101692.21
2019-02-14T15:45:12.351Z,101694.91
2019-02-14T15:47:38.724Z,101687.05
2019-02-14T15:50:08.977Z,101687.39
2019-02-14T15:52:35.463Z,101688.38
2019-02-14T15:55:01.956Z,101689.17
2019-02-14T15:57:28.406Z,101684.34
2019-02-14T15:59:54.719Z,101684.48
2019-02-14T16:02:21.117Z,101677.06
2019-02-14T16:04:47.673Z,101682.63
2019-02-14T16:07:15.343Z,101682.39
2019-02-14T16:09:42.362Z,101688.19
2019-02-14T16:12:09.010Z,101692.91
2019-02-14T16:14:35.677Z,101693.38
2019-02-14T16:17:02.096Z,101696.78
2019-02-14T16:19:28.786Z,101692.69
2019-02-14T16:21:56.148Z,101694.30
2019-02-14T16:24:23.576Z,101685.86
2019-02-14T16:26:49.910Z,101689.57
2019-02-14T16:29:16.213Z,101688.78
2019-02-14T16:31:42.914Z,101685.22
2019-02-14T16:34:09.559Z,101682.52
2019-02-14T16:36:35.934Z,101683.72
2019-02-14T16:39:04.195Z,101679.46
2019-02-14T16:41:32.740Z,101674.60
2019-02-14T16:43:59.286Z,101678.14
2019-02-14T16:46:26.676Z,101676.34
2019-02-14T16:48:53.224Z,101675.52
2019-02-14T16:51:19.804Z,101672.08
2019-02-14T16:53:46.180Z,101678.34
2019-02-14T16:56:12.515Z,101675.69
2019-02-14T16:58:38.938Z,101678.21
2019-02-14T17:01:05.382Z,101679.74
2019-02-14T17:03:32.352Z,101677.60
2019-02-14T17:05:58.940Z,101680.16
2019-02-14T17:08:25.679Z,101680.63
2019-02-14T17:10:52.362Z,101685.38
2019-02-14T17:13:18.977Z,101688.66
2019-02-14T17:15:45.314Z,101682.56
2019-02-14T17:18:12.004Z,101683.27
2019-02-14T17:20:38.321Z,101686.73
2019-02-14T17:23:04.992Z,101685.34
2019-02-14T17:25:31.722Z,101684.68
2019-02-14T17:27:58.112Z,101698.87
2019-02-14T17:30:24.714Z,101700.77
2019-02-14T17:32:52.523Z,101704.48
2019-02-14T17:35:18.881Z,101709.02
2019-02-14T17:37:46.102Z,101705.88
2019-02-14T17:40:12.784Z,101715.72
2019-02-14T17:42:39.238Z,101704.98
2019-02-14T17:45:08.510Z,101707.59
2019-02-14T17:47:34.926Z,101701.02
2019-02-14T17:50:01.256Z,101715.00
2019-02-14T17:52:27.591Z,101704.05
2019-02-14T17:54:54.243Z,101703.02
2019-02-14T17:57:20.843Z,101698.52
2019-02-14T17:59:47.451Z,101704.33
2019-02-14T18:02:15.447Z,101702.97
2019-02-14T18:04:42.061Z,101704.78
2019-02-14T18:07:08.370Z,101705.19
2019-02-14T18:09:34.703Z,101709.28
2019-02-14T18:12:01.304Z,101712.83
2019-02-14T18:14:27.841Z,101712.24
2019-02-14T18:16:54.171Z,101710.48
2019-02-14T18:19:20.798Z,101712.95
2019-02-14T18:21:47.469Z,101705.65
2019-02-14T18:24:14.172Z,101711.30
2019-02-14T18:26:40.495Z,101701.84
2019-02-14T18:29:06.812Z,101707.58
2019-02-14T18:31:33.144Z,101707.05
2019-02-14T18:33:59.502Z,101712.42
2019-02-14T18:36:26.046Z,101706.02
2019-02-14T18:38:52.863Z,101710.58
2019-02-14T18:41:19.229Z,101708.09
2019-02-14T18:43:45.657Z,101711.00
2019-02-14T18:46:12.475Z,101719.23
2019-02-14T18:48:38.799Z,101716.26
2019-02-14T18:51:05.372Z,101722.16
2019-02-14T18:53:31.729Z,101727.50
2019-02-14T18:55:58.099Z,101724.93
2019-02-14T18:58:26.649Z,101720.27
2019-02-14T19:00:52.960Z,101712.46
2019-02-14T19:03:19.382Z,101711.98
2019-02-14T19:05:45.726Z,101708.84
2019-02-14T19:08:12.359Z,101702.06
2019-02-14T19:10:38.757Z,101696.65
2019-02-14T19:13:05.352Z,101699.34
2019-02-14T19:15:31.702Z,101695.67
2019-02-14T19:17:58.401Z,101691.47
2019-02-14T19:20:24.770Z,101692.28
2019-02-14T19:22:51.119Z,101682.05
2019-02-14T19:25:18.085Z,101692.24
2019-02-14T19:27:44.666Z,101688.13
2019-02-14T19:30:12.372Z,101686.41
2019-02-14T19:32:39.019Z,101687.20
2019-02-14T19:35:08.014Z,101684.34
2019-02-14T19:37:35.567Z,101683.70
2019-02-14T19:40:02.164Z,101685.93
2019-02-14T19:42:28.826Z,101682.84
2019-02-14T19:44:55.599Z,101685.67
2019-02-14T19:47:22.168Z,101684.97
2019-02-14T19:49:48.525Z,101681.39
2019-02-14T19:52:14.884Z,101681.80
2019-02-14T19:54:41.499Z,101688.65
2019-02-14T19:57:08.123Z,101687.19
2019-02-14T19:59:34.457Z,101692.03
2019-02-14T20:02:01.104Z,101694.76
2019-02-14T20:04:27.693Z,101696.73
2019-02-14T20:06:54.154Z,101694.54
2019-02-14T20:09:20.931Z,101683.52
2019-02-14T20:11:47.286Z,101694.28
2019-02-14T20:14:14.651Z,101686.38
2019-02-14T20:16:41.272Z,101684.41
2019-02-14T20:19:07.656Z,101684.13
2019-02-14T20:21:34.226Z,101673.70
2019-02-14T20:24:00.851Z,101670.75
2019-02-14T20:26:27.290Z,101669.04
2019-02-14T20:28:53.681Z,101674.11
2019-02-14T20:31:20.309Z,101671.81
2019-02-14T20:33:46.860Z,101673.56
2019-02-14T20:36:13.222Z,101664.04
2019-02-14T20:41:06.485Z,101663.70
2019-02-14T20:43:32.940Z,101659.59
2019-02-14T20:45:59.442Z,101663.29
2019-02-14T20:48:26.335Z,101664.76
2019-02-14T20:50:52.819Z,101666.64
2019-02-14T20:53:19.290Z,101668.55
2019-02-14T20:55:45.687Z,101666.29
2019-02-14T20:58:12.475Z,101672.28
2019-02-14T21:00:39.280Z,101673.97
2019-02-14T21:03:05.958Z,101666.29
2019-02-14T21:05:32.616Z,101670.95
2019-02-14T21:08:00.263Z,101672.83
2019-02-14T21:10:26.632Z,101674.61
2019-02-14T21:12:53.297Z,101677.30
2019-02-14T21:15:19.598Z,101677.56
2019-02-14T21:17:46.201Z,101673.88
2019-02-14T21:20:14.682Z,101671.31
2019-02-14T21:22:41.123Z,101668.42
2019-02-14T21:25:08.168Z,101668.74
2019-02-14T21:27:35.255Z,101667.92
2019-02-14T21:30:03.084Z,101663.83
2019-02-14T21:32:29.912Z,101668.91
2019-02-14T21:34:56.247Z,101671.09
2019-02-14T21:37:23.784Z,101676.16
2019-02-14T21:39:50.268Z,101623.91
2019-02-14T21:42:20.560Z,101676.95
2019-02-14T21:44:44.912Z,101674.12
2019-02-14T21:47:11.523Z,101675.36
2019-02-14T21:49:38.039Z,101674.06
2019-02-14T21:52:04.356Z,101678.48
2019-02-14T21:54:31.771Z,101680.15
2019-02-14T21:56:58.330Z,101676.28
2019-02-14T21:59:24.890Z,101676.30
2019-02-14T22:01:51.329Z,101678.46
2019-02-14T22:04:17.809Z,101678.34
2019-02-14T22:06:44.246Z,101676.77
2019-02-14T22:09:10.623Z,101674.44
2019-02-14T22:11:37.114Z,101678.75
2019-02-14T22:14:03.633Z,101684.16
2019-02-14T22:16:29.983Z,101683.37
2019-02-14T22:18:56.639Z,101682.09
2019-02-14T22:21:23.271Z,101685.99
2019-02-14T22:23:49.573Z,101685.36
2019-02-14T22:26:16.887Z,101691.47
2019-02-14T22:28:43.249Z,101691.27
2019-02-14T22:31:09.822Z,101695.91
2019-02-14T22:33:36.420Z,101695.94
2019-02-14T22:36:03.077Z,101695.58
2019-02-14T22:38:29.683Z,101702.09
2019-02-14T22:40:57.006Z,101700.59
2019-02-14T22:43:23.405Z,101698.90
2019-02-14T22:45:50.010Z,101698.67
2019-02-14T22:48:16.593Z,101699.11
2019-02-14T22:50:42.996Z,101702.95
2019-02-14T22:53:09.554Z,101700.97
2019-02-14T22:55:36.157Z,101707.02
2019-02-14T22:58:02.467Z,101709.54
2019-02-14T23:00:36.877Z,101716.05
2019-02-14T23:03:05.666Z,101719.75
2019-02-14T23:05:32.346Z,101727.86
2019-02-14T23:07:58.668Z,101724.73
2019-02-14T23:10:24.993Z,101729.28
2019-02-14T23:12:55.680Z,101726.85
2019-02-14T23:15:19.537Z,101729.15
2019-02-14T23:17:45.885Z,101729.13
2019-02-14T23:20:12.217Z,101730.01
2019-02-14T23:22:38.581Z,101731.83
2019-02-14T23:25:05.174Z,101735.39
2019-02-14T23:27:31.503Z,101732.48
2019-02-14T23:29:58.099Z,101735.65
2019-02-14T23:32:24.675Z,101742.17
2019-02-14T23:34:50.986Z,101734.26
2019-02-14T23:37:17.404Z,101733.95
2019-02-14T23:39:44.018Z,101727.20
2019-02-14T23:42:10.349Z,101727.95
2019-02-14T23:44:36.921Z,101725.38
2019-02-14T23:47:03.508Z,101726.28
2019-02-14T23:49:30.162Z,101728.09
2019-02-14T23:51:56.486Z,101724.87
2019-02-14T23:54:23.087Z,101721.95
2019-02-14T23:56:49.662Z,101727.52
2019-02-14T23:59:16.296Z,101727.05
